Time;durP1;ratioP1;P1;durP2;ratioP2;P2;SDS_P1;SDS_P2;PMS_P1;PMS_P2;Temp;Humidity;BMP_temperature;BMP_pressure;BME280_temperature;BME280_humidity;BME280_pressure;Samples;Min_cycle;Max_cycle;Signal;HPM_P1;HPM_P2
2023/08/18 00:02:15;;;;;;;3.63;2.60;;;;;;;24.74;51.29;101956.47;5042427;28;20124;-34
2023/08/18 00:04:42;;;;;;;2.63;2.20;;;;;;;24.72;51.32;101959.31;5039274;28;20060;-34
2023/08/18 00:07:10;;;;;;;2.63;2.42;;;;;;;24.73;51.30;101954.78;5038734;28;20049;-34
2023/08/18 00:09:36;;;;;;;2.78;2.25;;;;;;;24.71;51.32;101960.34;5040927;28;20049;-34
2023/08/18 00:12:05;;;;;;;2.58;2.38;;;;;;;24.71;51.80;101951.38;5042019;28;20045;-34
2023/08/18 00:14:32;;;;;;;4.90;2.58;;;;;;;24.70;51.37;101947.81;5041746;28;21422;-34
2023/08/18 00:16:59;;;;;;;2.55;2.35;;;;;;;24.69;51.36;101940.72;5044498;28;20136;-34
2023/08/18 00:19:25;;;;;;;4.10;2.60;;;;;;;24.68;51.37;101944.41;5040635;28;20440;-34
2023/08/18 00:21:52;;;;;;;2.53;2.30;;;;;;;24.68;51.11;101941.69;5040630;28;20271;-34
2023/08/18 00:24:19;;;;;;;2.70;2.33;;;;;;;24.69;51.78;101945.28;5040073;28;20060;-34
2023/08/18 00:26:45;;;;;;;2.33;2.08;;;;;;;24.68;51.36;101944.41;5042804;28;20124;-34
2023/08/18 00:29:12;;;;;;;2.75;2.35;;;;;;;24.68;51.25;101943.56;5037482;28;20438;-34
2023/08/18 00:31:39;;;;;;;2.95;2.60;;;;;;;24.66;51.26;101938.31;5041259;28;20045;-34
2023/08/18 00:34:05;;;;;;;3.22;2.45;;;;;;;24.66;51.37;101940.19;5041132;28;20041;-34
2023/08/18 00:36:32;;;;;;;2.42;2.22;;;;;;;24.65;51.45;101936.66;5036073;28;20128;-34
2023/08/18 00:38:58;;;;;;;3.30;2.00;;;;;;;24.63;51.36;101936.78;5038742;28;20391;-34
2023/08/18 00:41:25;;;;;;;2.97;2.30;;;;;;;24.63;51.14;101938.66;5045291;28;20088;-34
2023/08/18 00:43:52;;;;;;;2.40;2.20;;;;;;;24.62;51.96;101929.69;5041063;28;20049;-34
2023/08/18 00:46:20;;;;;;;2.50;2.30;;;;;;;24.62;51.30;101928.84;5045611;28;20080;-34
2023/08/18 00:48:48;;;;;;;2.65;2.10;;;;;;;24.62;51.48;101931.56;5043716;28;20161;-34
2023/08/18 00:51:15;;;;;;;3.47;2.33;;;;;;;24.62;51.56;101934.25;5040795;28;20041;-34
2023/08/18 00:53:44;;;;;;;4.00;2.30;;;;;;;24.61;51.59;101932.59;5043211;28;20045;-34
2023/08/18 00:56:11;;;;;;;3.00;2.33;;;;;;;24.61;51.94;101936.13;5046482;28;20084;-34
2023/08/18 00:58:38;;;;;;;2.45;2.10;;;;;;;24.61;51.59;101943.44;5044313;28;20792;-34
2023/08/18 01:01:04;;;;;;;3.45;2.67;;;;;;;24.59;51.84;101930.03;5044170;28;20085;-34
2023/08/18 01:03:31;;;;;;;2.72;2.40;;;;;;;24.59;51.55;101935.44;5040633;28;20072;-34
2023/08/18 01:05:59;;;;;;;3.08;2.58;;;;;;;24.58;51.83;101941.88;5041956;28;20334;-34
2023/08/18 01:08:26;;;;;;;2.60;2.40;;;;;;;24.59;51.86;101934.59;5043641;28;20049;-34
2023/08/18 01:11:05;;;;;;;2.28;1.92;;;;;;;24.58;51.50;101939.19;5041655;28;20393;-34
2023/08/18 01:13:41;;;;;;;3.88;2.30;;;;;;;24.57;51.33;101934.78;5042066;28;20124;-34
2023/08/18 01:16:14;;;;;;;3.60;2.58;;;;;;;24.57;51.27;101932.06;5042645;28;20053;-34
2023/08/18 01:18:41;;;;;;;2.83;2.28;;;;;;;24.56;51.37;101932.22;5046681;28;20045;-34
2023/08/18 01:21:12;;;;;;;3.22;2.55;;;;;;;24.56;51.57;101932.22;5045312;28;20085;-34
2023/08/18 01:23:40;;;;;;;3.53;2.20;;;;;;;24.55;51.77;101922.41;5043693;28;20049;-34
2023/08/18 01:26:07;;;;;;;2.90;2.30;;;;;;;24.53;51.85;101919.03;5045458;28;20060;-34
2023/08/18 01:28:34;;;;;;;3.10;2.30;;;;;;;24.53;51.96;101913.63;5046925;28;20045;-34
2023/08/18 01:31:06;;;;;;;3.45;2.63;;;;;;;24.53;51.89;101921.75;5046407;28;20049;-34
2023/08/18 01:33:58;;;;;;;3.38;2.42;;;;;;;24.52;51.96;101918.19;5044387;28;20075;-34
2023/08/18 01:36:29;;;;;;;3.03;2.53;;;;;;;24.53;52.00;101919.03;5042620;28;20060;-34
2023/08/18 01:38:57;;;;;;;2.40;2.00;;;;;;;24.52;51.80;101917.31;5046075;28;20059;-34
2023/08/18 01:41:26;;;;;;;3.08;2.60;;;;;;;24.51;51.82;101919.19;5043760;28;20358;-34
2023/08/18 01:43:52;;;;;;;2.90;2.53;;;;;;;24.50;51.55;101917.50;5040206;28;20071;-34
2023/08/18 01:46:19;;;;;;;3.05;2.42;;;;;;;24.48;51.62;101907.84;5039981;28;20076;-34
2023/08/18 01:48:45;;;;;;;3.42;2.45;;;;;;;24.47;51.66;101907.00;5044797;28;20057;-34
2023/08/18 01:51:12;;;;;;;4.72;2.63;;;;;;;24.45;51.45;101900.91;5042236;28;20099;-34
2023/08/18 01:53:39;;;;;;;3.35;2.72;;;;;;;24.46;51.87;101899.03;5041749;28;20128;-34
2023/08/18 01:56:05;;;;;;;3.15;2.55;;;;;;;24.45;51.52;101898.19;5045350;28;20115;-34
2023/08/18 01:58:32;;;;;;;3.05;2.38;;;;;;;24.45;52.14;101902.78;5038035;28;20128;-34
2023/08/18 02:00:59;;;;;;;3.15;2.20;;;;;;;24.44;51.73;101915.47;5042803;28;20124;-34
2023/08/18 02:03:27;;;;;;;3.53;2.60;;;;;;;24.44;51.65;101915.47;5045264;28;20057;-34
2023/08/18 02:05:56;;;;;;;3.85;2.30;;;;;;;24.43;51.64;101913.78;5043595;28;20081;-34
2023/08/18 02:08:24;;;;;;;3.00;2.10;;;;;;;24.43;51.85;101913.78;5043488;28;20057;-34
2023/08/18 02:10:51;;;;;;;3.00;2.45;;;;;;;24.41;51.88;101910.41;5042691;28;20045;-34
2023/08/18 02:13:17;;;;;;;2.92;2.50;;;;;;;24.42;51.91;101916.66;5043802;28;20056;-34
2023/08/18 02:15:47;;;;;;;2.60;2.40;;;;;;;24.40;51.80;101905.13;5046638;28;20045;-34
2023/08/18 02:18:14;;;;;;;3.83;2.60;;;;;;;24.40;52.09;101894.28;5040728;28;20051;-34
2023/08/18 02:20:40;;;;;;;4.43;2.20;;;;;;;24.38;51.99;101900.75;5039491;28;20045;-34
2023/08/18 02:23:07;;;;;;;3.35;2.33;;;;;;;24.39;51.94;101907.00;5038913;28;20089;-34
2023/08/18 02:25:33;;;;;;;4.10;2.80;;;;;;;24.38;52.04;101894.47;5041824;28;20059;-34
2023/08/18 02:28:00;;;;;;;2.72;2.35;;;;;;;24.37;52.09;101896.31;5042252;28;20131;-34
2023/08/18 02:30:27;;;;;;;2.50;2.30;;;;;;;24.37;52.10;101892.75;5040338;28;20195;-34
2023/08/18 02:32:53;;;;;;;2.83;2.15;;;;;;;24.37;51.99;101887.34;5041495;28;20446;-34
2023/08/18 02:35:20;;;;;;;2.63;2.22;;;;;;;24.36;52.01;101891.03;5043567;28;20059;-34
2023/08/18 02:37:46;;;;;;;2.80;1.83;;;;;;;24.35;52.14;101879.34;5041063;28;20053;-34
2023/08/18 02:40:13;;;;;;;2.47;2.03;;;;;;;24.34;52.19;101879.53;5044277;28;20073;-34
2023/08/18 02:42:40;;;;;;;2.92;2.20;;;;;;;24.33;52.10;101881.41;5039953;28;20041;-34
2023/08/18 02:45:07;;;;;;;3.97;2.30;;;;;;;24.33;51.76;101870.56;5041806;28;20503;-34
2023/08/18 02:47:34;;;;;;;4.95;2.10;;;;;;;24.32;52.12;101852.63;5043133;28;20120;-34
2023/08/18 02:50:01;;;;;;;3.60;1.80;;;;;;;24.32;51.78;101862.59;5040638;28;20080;-34
2023/08/18 02:52:27;;;;;;;3.33;2.33;;;;;;;24.31;51.89;101861.75;5041416;28;20133;-34
2023/08/18 02:54:54;;;;;;;3.33;2.22;;;;;;;24.31;51.90;101861.75;5040977;28;20049;-34
2023/08/18 02:57:20;;;;;;;3.25;1.83;;;;;;;24.30;52.45;101845.69;5042052;28;20076;-34
2023/08/18 02:59:47;;;;;;;2.28;1.80;;;;;;;24.29;52.17;101849.41;5043856;28;20395;-34
2023/08/18 03:02:13;;;;;;;3.65;2.53;;;;;;;24.29;51.84;101852.13;5036370;28;20515;-34
2023/08/18 03:04:40;;;;;;;2.33;1.88;;;;;;;24.28;51.85;101840.44;5040504;28;20141;-34
2023/08/18 03:07:07;;;;;;;2.80;2.05;;;;;;;24.28;52.13;101850.41;5038090;28;20406;-34
2023/08/18 03:09:33;;;;;;;2.45;1.88;;;;;;;24.27;52.26;101849.56;5040423;28;20053;-34
2023/08/18 03:12:00;;;;;;;2.67;1.73;;;;;;;24.26;51.95;101847.88;5045695;28;20124;-34
2023/08/18 03:14:26;;;;;;;1.88;1.70;;;;;;;24.24;52.23;101839.09;5046606;28;20187;-34
2023/08/18 03:16:53;;;;;;;2.30;2.10;;;;;;;24.24;52.23;101844.50;5042353;28;20091;-34
2023/08/18 03:19:19;;;;;;;2.85;1.73;;;;;;;24.25;51.94;101848.06;5043902;28;20048;-34
2023/08/18 03:21:46;;;;;;;2.70;1.60;;;;;;;24.23;52.44;101855.50;5037572;28;20448;-34
2023/08/18 03:24:13;;;;;;;3.88;2.00;;;;;;;24.23;52.13;101858.22;5044464;28;20123;-34
2023/08/18 03:26:39;;;;;;;2.25;1.70;;;;;;;24.22;51.92;101851.09;5045716;28;20053;-34
2023/08/18 03:29:06;;;;;;;4.20;1.92;;;;;;;24.21;52.09;101849.41;5046126;28;20144;-34
2023/08/18 03:31:33;;;;;;;2.45;1.73;;;;;;;24.21;52.29;101846.72;5045051;28;20045;-34
2023/08/18 03:33:59;;;;;;;1.80;1.52;;;;;;;24.19;52.29;101840.59;5042944;28;20519;-34
2023/08/18 03:36:26;;;;;;;2.20;1.70;;;;;;;24.19;52.60;101846.00;5041133;28;20337;-34
2023/08/18 03:38:53;;;;;;;2.10;1.70;;;;;;;24.18;52.66;101855.16;5047720;28;20056;-34
2023/08/18 03:41:19;;;;;;;3.10;1.90;;;;;;;24.18;52.11;101844.34;5043259;28;20056;-34
2023/08/18 03:43:46;;;;;;;2.55;1.88;;;;;;;24.15;51.97;101845.50;5042185;28;20334;-34
2023/08/18 03:46:30;;;;;;;2.78;1.85;;;;;;;24.12;52.29;101835.88;5046689;28;20152;-34
2023/08/18 03:48:57;;;;;;;2.75;1.95;;;;;;;24.14;52.75;101844.66;5041982;28;20049;-34
2023/08/18 03:51:24;;;;;;;6.55;1.80;;;;;;;24.13;52.38;101842.13;5042108;28;20321;-34
2023/08/18 03:53:51;;;;;;;4.18;2.03;;;;;;;24.13;52.59;101847.56;5042778;28;20041;-34
2023/08/18 03:56:17;;;;;;;2.00;1.40;;;;;;;24.11;52.30;101839.56;5040112;28;20544;-34
2023/08/18 03:58:44;;;;;;;2.38;1.50;;;;;;;24.08;52.82;101839.94;5042705;28;20487;-34
2023/08/18 04:01:11;;;;;;;3.33;1.83;;;;;;;24.07;52.57;101843.66;5037236;28;20072;-34
2023/08/18 04:03:39;;;;;;;2.22;1.80;;;;;;;24.06;53.06;101847.38;5041507;28;20053;-34
2023/08/18 04:06:06;;;;;;;5.05;2.08;;;;;;;24.06;52.86;101841.97;5032842;28;20158;-34
2023/08/18 04:08:38;;;;;;;4.35;2.28;;;;;;;24.03;52.52;101845.00;5038421;28;20069;-34
2023/08/18 04:11:05;;;;;;;3.38;2.40;;;;;;;24.03;53.14;101845.00;5038933;28;20077;-34
2023/08/18 04:13:31;;;;;;;5.55;2.15;;;;;;;24.03;52.80;101842.28;5037919;28;20132;-34
2023/08/18 04:15:58;;;;;;;3.65;2.50;;;;;;;24.02;52.73;101842.47;5038907;28;20181;-34
2023/08/18 04:18:24;;;;;;;3.03;1.67;;;;;;;24.02;52.76;101839.75;5049614;28;20086;-34
2023/08/18 04:20:51;;;;;;;3.63;2.00;;;;;;;24.01;52.30;101838.06;5049489;28;20143;-34
2023/08/18 04:23:18;;;;;;;6.18;2.13;;;;;;;24.01;53.08;101846.19;5050633;28;20049;-34
2023/08/18 04:25:44;;;;;;;3.35;2.30;;;;;;;24.00;52.80;101848.06;5049323;28;20081;-34
2023/08/18 04:28:11;;;;;;;6.75;1.80;;;;;;;23.99;52.46;101845.50;5049698;28;20080;-34
2023/08/18 04:30:38;;;;;;;4.80;2.53;;;;;;;23.98;52.57;101852.78;5045385;28;20087;-34
2023/08/18 04:33:04;;;;;;;4.70;2.28;;;;;;;23.99;52.76;101845.50;5045408;28;20053;-34
2023/08/18 04:35:31;;;;;;;3.65;2.13;;;;;;;23.97;52.42;101842.97;5049940;28;20047;-34
2023/08/18 04:37:58;;;;;;;4.20;2.10;;;;;;;23.97;52.75;101847.56;5046675;28;20179;-34
2023/08/18 04:40:24;;;;;;;3.45;1.80;;;;;;;23.96;53.26;101835.88;5048608;28;20127;-34
2023/08/18 04:42:51;;;;;;;4.53;2.20;;;;;;;23.97;53.26;101844.84;5049027;28;20099;-34
2023/08/18 04:45:18;;;;;;;5.63;1.95;;;;;;;23.95;52.62;101847.69;5049245;28;20041;-34
2023/08/18 04:47:44;;;;;;;3.60;2.00;;;;;;;23.95;53.30;101849.56;5047220;28;20127;-34
2023/08/18 04:50:11;;;;;;;4.60;1.90;;;;;;;23.94;52.75;101850.59;5040357;28;20049;-34
2023/08/18 04:52:37;;;;;;;5.40;2.20;;;;;;;23.93;52.82;101857.88;5049485;28;20565;-34
2023/08/18 04:55:04;;;;;;;2.42;1.63;;;;;;;23.94;52.97;101870.38;5046588;28;20103;-34
2023/08/18 04:57:31;;;;;;;3.33;1.77;;;;;;;23.93;52.70;101863.28;5049495;28;20048;-34
2023/08/18 04:59:57;;;;;;;2.33;1.65;;;;;;;23.93;52.65;101857.88;5042162;28;20106;-34
2023/08/18 05:02:26;;;;;;;2.15;1.60;;;;;;;23.92;52.83;101856.19;5046305;28;20048;-34
2023/08/18 05:04:53;;;;;;;2.38;1.85;;;;;;;23.93;52.50;101860.59;5043882;28;20096;-34
2023/08/18 05:07:21;;;;;;;3.42;1.65;;;;;;;23.93;52.54;101855.16;5042214;28;20444;-34
2023/08/18 05:09:48;;;;;;;2.65;1.50;;;;;;;23.93;53.15;101857.03;5046527;28;20372;-34
2023/08/18 05:12:15;;;;;;;2.88;1.90;;;;;;;23.93;53.12;101851.63;5047057;28;20059;-34
2023/08/18 05:14:41;;;;;;;4.20;1.80;;;;;;;23.94;52.56;101856.84;5049001;28;20077;-34
2023/08/18 05:17:08;;;;;;;2.42;1.85;;;;;;;23.92;52.50;101856.19;5044488;28;20056;-34
2023/08/18 05:19:34;;;;;;;3.47;1.70;;;;;;;23.92;52.56;101845.34;5042064;28;20502;-34
2023/08/18 05:22:01;;;;;;;3.33;1.77;;;;;;;23.92;52.74;101849.91;5041477;28;20124;-34
2023/08/18 05:24:28;;;;;;;2.83;1.80;;;;;;;23.93;52.25;101851.63;5042678;28;20388;-34
2023/08/18 05:26:54;;;;;;;1.80;1.55;;;;;;;23.93;53.08;101855.16;5043878;28;20084;-34
2023/08/18 05:29:21;;;;;;;3.33;1.67;;;;;;;23.92;52.89;101850.78;5043081;28;20053;-34
2023/08/18 05:31:48;;;;;;;5.22;2.03;;;;;;;23.93;52.75;101844.34;5047695;28;20049;-34
2023/08/18 05:34:15;;;;;;;3.17;1.75;;;;;;;23.95;52.69;101850.41;5048172;28;20115;-33
2023/08/18 05:36:41;;;;;;;3.50;2.03;;;;;;;23.95;53.26;101841.44;5046008;28;20052;-33
2023/08/18 05:39:08;;;;;;;3.75;2.28;;;;;;;23.96;52.98;101837.72;5037706;28;20098;-33
2023/08/18 05:41:35;;;;;;;4.10;2.40;;;;;;;23.96;52.57;101840.41;5042909;28;20042;-34
2023/08/18 05:44:01;;;;;;;2.65;2.40;;;;;;;23.97;52.91;101844.84;5044750;28;20499;-34
2023/08/18 05:46:28;;;;;;;3.80;2.70;;;;;;;23.96;53.29;101838.59;5041692;28;20045;-33
2023/08/18 05:48:54;;;;;;;3.22;2.65;;;;;;;23.97;52.68;101837.56;5041893;28;20703;-33
2023/08/18 05:51:21;;;;;;;5.57;3.35;;;;;;;23.98;52.81;101833.00;5041947;28;20148;-33
2023/08/18 05:53:48;;;;;;;5.32;3.00;;;;;;;23.98;52.49;101844.66;5045380;28;20098;-33
2023/08/18 05:56:14;;;;;;;3.97;3.15;;;;;;;23.98;52.78;101844.66;5045147;28;20131;-33
2023/08/18 05:58:41;;;;;;;5.70;3.70;;;;;;;23.98;52.80;101833.84;5041454;28;20076;-33
2023/08/18 06:01:08;;;;;;;4.90;3.42;;;;;;;23.99;52.63;101840.94;5043625;28;20428;-34
2023/08/18 06:03:34;;;;;;;4.25;3.13;;;;;;;23.99;53.19;101835.53;5041659;28;20134;-34
2023/08/18 06:06:01;;;;;;;4.40;3.50;;;;;;;23.98;52.67;101833.84;5040450;28;20128;-33
2023/08/18 06:08:32;;;;;;;6.90;3.72;;;;;;;24.00;52.44;101828.22;5048869;28;20425;-34
2023/08/18 06:10:59;;;;;;;5.93;3.85;;;;;;;23.99;53.10;101823.84;5044564;28;20047;-34
2023/08/18 06:13:26;;;;;;;6.82;3.83;;;;;;;23.99;52.86;101816.56;5046545;28;20124;-33
2023/08/18 06:15:54;;;;;;;6.15;3.65;;;;;;;23.99;53.02;101819.28;5045086;28;20077;-33
2023/08/18 06:18:21;;;;;;;5.22;2.70;;;;;;;23.99;52.62;101824.69;5047616;28;20095;-33
2023/08/18 06:20:49;;;;;;;4.63;3.10;;;;;;;23.99;52.93;101824.69;5045754;28;20099;-33
2023/08/18 06:23:16;;;;;;;3.95;2.90;;;;;;;23.99;52.79;101821.13;5042606;28;20077;-33
2023/08/18 06:25:42;;;;;;;5.13;2.83;;;;;;;24.00;52.43;101822.81;5038604;28;20049;-34
2023/08/18 06:28:09;;;;;;;3.80;2.70;;;;;;;24.00;52.70;101822.81;5045570;28;20139;-33
2023/08/18 06:30:35;;;;;;;12.50;3.85;;;;;;;23.99;53.46;101813.84;5042154;28;20448;-34
2023/08/18 06:33:02;;;;;;;21.73;5.13;;;;;;;24.02;54.65;101813.53;5044749;28;20060;-33
2023/08/18 06:35:29;;;;;;;20.40;5.40;;;;;;;24.02;55.54;101816.22;5042553;28;20045;-33
2023/08/18 06:37:56;;;;;;;15.15;4.68;;;;;;;24.04;56.97;101819.63;5041657;28;20451;-33
2023/08/18 06:40:22;;;;;;;12.10;4.70;;;;;;;24.06;57.36;101814.88;5045633;28;20049;-33
2023/08/18 06:42:49;;;;;;;10.85;4.03;;;;;;;24.06;57.62;101812.16;5041306;28;20086;-33
2023/08/18 06:45:16;;;;;;;13.50;3.80;;;;;;;24.09;57.36;101809.13;5043714;28;20436;-33
2023/08/18 06:47:43;;;;;;;18.73;4.45;;;;;;;24.10;57.42;101810.81;5044573;28;20174;-33
2023/08/18 06:50:09;;;;;;;27.48;7.00;;;;;;;24.12;57.18;101814.22;5040983;28;20068;-33
2023/08/18 06:52:36;;;;;;;19.65;6.72;;;;;;;24.14;57.52;101814.03;5042365;28;20449;-33
2023/08/18 06:55:03;;;;;;;21.52;6.18;;;;;;;24.17;57.99;101820.97;5039320;28;20136;-33
2023/08/18 06:57:32;;;;;;;20.83;7.28;;;;;;;24.17;57.55;101810.97;5039707;28;20053;-33
2023/08/18 06:59:59;;;;;;;17.15;6.60;;;;;;;24.20;56.56;101812.47;5042529;28;20056;-33
2023/08/18 07:02:26;;;;;;;17.13;6.05;;;;;;;24.20;56.89;101796.22;5040656;28;20095;-33
2023/08/18 07:04:53;;;;;;;10.70;5.18;;;;;;;24.20;56.21;101791.69;5044763;28;20507;-33
2023/08/18 07:07:20;;;;;;;9.23;5.53;;;;;;;24.20;55.86;101805.22;5038481;28;20127;-33
2023/08/18 07:09:49;;;;;;;13.05;4.80;;;;;;;24.20;56.25;101807.94;5044262;28;20416;-33
2023/08/18 07:12:16;;;;;;;11.57;5.70;;;;;;;24.21;55.63;101808.78;5042588;28;20049;-33
2023/08/18 07:14:43;;;;;;;15.60;5.03;;;;;;;24.22;55.76;101805.88;5042089;28;20041;-33
2023/08/18 07:17:10;;;;;;;10.13;4.45;;;;;;;24.23;55.82;101798.59;5038846;28;20049;-33
2023/08/18 07:19:36;;;;;;;10.77;5.18;;;;;;;24.24;55.06;101805.69;5044081;28;20354;-33
2023/08/18 07:22:04;;;;;;;11.80;4.45;;;;;;;24.24;55.46;101809.28;5042009;28;20394;-34
2023/08/18 07:24:32;;;;;;;8.57;3.83;;;;;;;24.26;54.85;101807.22;5043438;28;20056;-33
2023/08/18 07:26:58;;;;;;;9.77;3.97;;;;;;;24.28;54.98;101823.31;5040207;28;20049;-33
2023/08/18 07:29:25;;;;;;;8.15;4.00;;;;;;;24.28;54.70;101817.88;5045046;28;20045;-33
2023/08/18 07:31:52;;;;;;;6.80;3.88;;;;;;;24.29;54.49;101816.91;5041173;28;20476;-33
2023/08/18 07:34:18;;;;;;;6.38;4.07;;;;;;;24.29;54.80;101822.31;5041720;28;20057;-33
2023/08/18 07:36:45;;;;;;;7.05;4.38;;;;;;;24.29;54.75;101815.03;5043739;28;20045;-33
2023/08/18 07:39:11;;;;;;;8.05;4.45;;;;;;;24.29;54.03;101820.44;5031838;28;20119;-33
2023/08/18 07:41:40;;;;;;;6.38;5.22;;;;;;;24.30;54.10;101824.00;5040529;28;20061;-34
2023/08/18 07:44:08;;;;;;;9.52;5.45;;;;;;;24.29;54.49;101808.75;5041865;28;20049;-34
2023/08/18 07:46:35;;;;;;;10.88;5.35;;;;;;;24.29;54.19;101806.06;5042009;28;20179;-34
2023/08/18 07:49:02;;;;;;;8.73;5.78;;;;;;;24.30;53.72;101810.44;5044751;28;20053;-33
2023/08/18 07:51:29;;;;;;;7.38;5.63;;;;;;;24.28;53.82;101807.06;5031338;28;20056;-33
2023/08/18 07:53:55;;;;;;;10.48;6.20;;;;;;;24.27;54.04;101805.38;5048241;28;20612;-34
2023/08/18 07:56:22;;;;;;;7.97;6.18;;;;;;;24.28;53.58;101807.06;5037484;28;20398;-34
2023/08/18 07:58:48;;;;;;;11.45;5.90;;;;;;;24.27;54.23;101811.63;5041591;28;20052;-34
2023/08/18 08:01:16;;;;;;;10.55;7.00;;;;;;;24.28;53.74;101804.34;5035814;28;20154;-34
2023/08/18 08:03:42;;;;;;;12.13;6.30;;;;;;;24.29;53.62;101806.06;5042339;28;20478;-34
2023/08/18 08:06:09;;;;;;;10.48;6.18;;;;;;;24.30;53.84;101810.44;5039033;28;20132;-34
2023/08/18 08:08:36;;;;;;;9.63;6.85;;;;;;;24.30;53.91;101807.75;5044485;28;20095;-34
2023/08/18 08:11:03;;;;;;;10.38;6.70;;;;;;;24.32;53.96;101811.09;5042044;28;20144;-34
2023/08/18 08:13:29;;;;;;;10.55;6.88;;;;;;;24.32;53.56;101802.97;5041784;28;20044;-34
2023/08/18 08:15:56;;;;;;;9.57;6.50;;;;;;;24.33;53.74;101805.53;5044240;28;20127;-33
2023/08/18 08:18:23;;;;;;;11.55;7.00;;;;;;;24.33;53.55;101800.13;5038166;28;20056;-34
2023/08/18 08:20:49;;;;;;;11.75;7.50;;;;;;;24.33;53.98;101801.97;5039108;28;20771;-33
2023/08/18 08:23:16;;;;;;;12.23;7.50;;;;;;;24.34;53.72;101806.38;5039890;28;20135;-33
2023/08/18 08:25:42;;;;;;;11.27;7.63;;;;;;;24.34;53.52;101796.38;5042820;28;20126;-34
2023/08/18 08:28:09;;;;;;;13.77;8.30;;;;;;;24.35;53.66;101797.22;5040027;28;20049;-33
2023/08/18 08:30:38;;;;;;;9.98;7.18;;;;;;;24.35;53.63;101792.66;5042518;28;20045;-33
2023/08/18 08:33:04;;;;;;;14.27;8.65;;;;;;;24.35;54.01;101795.34;5041349;28;20349;-34
2023/08/18 08:35:32;;;;;;;12.20;7.97;;;;;;;24.37;54.00;101795.19;5041694;28;20065;-34
2023/08/18 08:37:59;;;;;;;12.80;7.90;;;;;;;24.38;54.14;101805.06;5039310;28;20065;-35
2023/08/18 08:40:26;;;;;;;10.77;8.23;;;;;;;24.39;53.75;101806.72;5040229;28;20045;-34
2023/08/18 08:42:59;;;;;;;12.05;7.90;;;;;;;24.40;54.15;101803.00;5043254;28;20057;-35
2023/08/18 08:45:29;;;;;;;14.27;8.10;;;;;;;24.41;53.65;101812.00;5041127;28;20114;-35
2023/08/18 08:47:57;;;;;;;12.10;8.25;;;;;;;24.42;53.63;101805.56;5042510;28;20141;-34
2023/08/18 08:50:28;;;;;;;13.25;8.10;;;;;;;24.42;54.05;101814.53;5042475;28;20196;-35
2023/08/18 08:52:59;;;;;;;;;;;;;;;24.43;54.18;101809.94;5037230;28;20041;-35
2023/08/18 08:55:31;;;;;;;8.68;6.63;;;;;;;24.47;53.73;101812.13;5036048;28;20309;-35
2023/08/18 08:57:59;;;;;;;11.13;6.72;;;;;;;24.49;54.06;101810.13;5039928;28;20566;-34
2023/08/18 09:00:26;;;;;;;12.93;8.13;;;;;;;24.49;53.92;101812.81;5044198;28;20095;-34
2023/08/18 09:02:58;;;;;;;13.52;8.85;;;;;;;24.50;54.58;101809.09;5042861;28;20069;-35
2023/08/18 09:05:28;;;;;;;15.98;8.07;;;;;;;24.51;54.20;101801.78;5040760;28;20424;-34
2023/08/18 09:07:54;;;;;;;12.85;8.20;;;;;;;24.51;54.64;101801.78;5045432;28;20158;-35
2023/08/18 09:10:21;;;;;;;11.68;7.45;;;;;;;24.52;54.58;101796.22;5047914;28;20055;-34
2023/08/18 09:12:49;;;;;;;13.02;7.78;;;;;;;24.54;54.02;101801.47;5042397;28;20052;-34
2023/08/18 09:15:16;;;;;;;13.65;8.10;;;;;;;24.55;54.76;101795.84;5046770;28;20431;-35
2023/08/18 09:17:45;;;;;;;13.55;8.25;;;;;;;24.57;54.46;101801.13;5043957;28;20148;-35
2023/08/18 09:20:14;;;;;;;14.52;8.70;;;;;;;24.58;54.53;101790.09;5044158;28;20073;-34
2023/08/18 09:22:41;;;;;;;13.82;8.90;;;;;;;24.60;54.29;101785.34;5042337;28;20049;-35
2023/08/18 09:25:12;;;;;;;15.80;8.80;;;;;;;24.62;54.86;101791.44;5042283;28;20046;-35
2023/08/18 09:27:39;;;;;;;14.20;7.80;;;;;;;24.63;54.36;101793.13;5048388;28;20103;-35
2023/08/18 09:30:06;;;;;;;12.77;8.23;;;;;;;24.67;54.27;101795.47;5040611;28;20122;-35
2023/08/18 09:32:36;;;;;;;13.52;8.75;;;;;;;24.69;54.44;101790.75;5040213;28;20090;-35
2023/08/18 09:35:09;;;;;;;15.55;9.23;;;;;;;24.70;54.72;101792.44;5038032;28;20728;-35
2023/08/18 09:37:36;;;;;;;14.65;9.30;;;;;;;24.72;54.75;101796.63;5045275;28;20057;-35
2023/08/18 09:40:04;;;;;;;18.38;9.27;;;;;;;24.75;54.47;101780.03;5041087;28;20496;-35
2023/08/18 09:42:31;;;;;;;19.27;9.35;;;;;;;24.77;54.81;101782.59;5042474;28;20095;-35
2023/08/18 09:44:58;;;;;;;16.15;9.63;;;;;;;24.80;55.07;101790.34;5043897;28;20064;-35
2023/08/18 09:47:29;;;;;;;15.05;9.85;;;;;;;24.82;55.16;101791.03;5039345;28;20464;-35
2023/08/18 09:49:58;;;;;;;13.43;8.38;;;;;;;24.87;54.65;101785.91;5042650;28;20059;-35
2023/08/18 09:52:25;;;;;;;12.05;8.82;;;;;;;24.90;54.57;101782.00;5041199;28;20827;-35
2023/08/18 09:55:08;;;;;;;18.20;10.05;;;;;;;24.91;55.09;101768.25;5043214;28;20053;-35
2023/08/18 09:57:40;;;;;;;14.90;9.90;;;;;;;24.93;54.81;101768.94;5041371;28;20045;-35
2023/08/18 10:00:09;;;;;;;14.52;8.30;;;;;;;24.95;55.12;101766.03;5042546;28;20077;-35
2023/08/18 10:02:39;;;;;;;15.60;9.07;;;;;;;24.96;54.56;101770.44;5046049;28;20095;-35
2023/08/18 10:05:06;;;;;;;15.85;9.38;;;;;;;24.97;54.70;101769.44;5042458;28;20144;-35
2023/08/18 10:07:34;;;;;;;14.57;9.00;;;;;;;24.98;55.06;101773.84;5040019;28;20440;-35
2023/08/18 10:10:01;;;;;;;15.25;9.13;;;;;;;24.98;55.19;101771.13;5045646;28;20111;-35
2023/08/18 10:12:29;;;;;;;14.73;9.43;;;;;;;24.97;55.04;101773.00;5047493;28;20053;-35
2023/08/18 10:14:58;;;;;;;15.85;9.30;;;;;;;24.99;54.97;101767.38;5046502;28;20136;-35
2023/08/18 10:17:25;;;;;;;13.27;8.05;;;;;;;24.99;55.11;101765.50;5041855;28;20446;-35
2023/08/18 10:19:54;;;;;;;14.98;8.65;;;;;;;25.00;54.89;101769.91;5040395;28;20364;-36
2023/08/18 10:22:26;;;;;;;15.88;10.05;;;;;;;25.01;54.82;101763.47;5042616;28;20630;-33
2023/08/18 10:24:54;;;;;;;13.05;8.50;;;;;;;25.03;54.80;101752.44;5042990;28;20434;-33
2023/08/18 10:27:27;;;;;;;15.88;8.95;;;;;;;25.04;55.15;101760.38;5045388;28;20444;-33
2023/08/18 10:30:00;;;;;;;13.77;7.15;;;;;;;25.05;54.52;101758.56;5047593;28;20045;-36
2023/08/18 10:32:27;;;;;;;14.20;8.18;;;;;;;25.08;54.98;101758.16;5045628;28;20076;-35
2023/08/18 10:35:19;;;;;;;15.23;9.15;;;;;;;25.07;55.22;101746.47;5042117;28;20042;-34
2023/08/18 10:38:07;;;;;;;14.18;8.05;;;;;;;25.10;54.62;101748.88;5044864;28;20048;-34
2023/08/18 10:40:35;;;;;;;12.60;8.20;;;;;;;25.15;55.10;101742.06;5046775;28;20052;-34
2023/08/18 10:43:12;;;;;;;17.13;8.73;;;;;;;25.14;55.12;101727.66;5040902;28;20124;-34
2023/08/18 10:45:40;;;;;;;14.30;8.45;;;;;;;25.18;55.16;101729.00;5045856;28;20053;-34
2023/08/18 10:48:07;;;;;;;14.45;7.85;;;;;;;25.22;55.09;101738.47;5040564;28;20060;-34
2023/08/18 10:50:38;;;;;;;11.82;7.75;;;;;;;25.25;54.91;101738.09;5039934;28;20045;-34
2023/08/18 10:53:07;;;;;;;15.73;8.85;;;;;;;25.28;55.23;101740.44;5043726;28;20433;-34
2023/08/18 10:55:34;;;;;;;17.33;9.55;;;;;;;25.29;55.25;101736.72;5041045;28;20430;-34
2023/08/18 10:58:01;;;;;;;17.88;9.55;;;;;;;25.31;55.44;101734.66;5040688;28;20080;-34
2023/08/18 11:00:35;;;;;;;13.80;8.57;;;;;;;25.34;55.04;101725.31;5042477;28;20100;-34
2023/08/18 11:03:05;;;;;;;12.95;9.00;;;;;;;25.36;55.25;101728.69;5040405;28;20131;-34
2023/08/18 11:05:32;;;;;;;16.67;8.15;;;;;;;25.36;55.12;101721.38;5038528;28;20335;-34
2023/08/18 11:08:00;;;;;;;12.73;8.80;;;;;;;25.39;55.14;101713.91;5037728;28;20049;-34
2023/08/18 11:10:27;;;;;;;15.52;9.20;;;;;;;25.41;55.01;101704.56;5040596;28;20152;-34
2023/08/18 11:12:57;;;;;;;12.07;7.30;;;;;;;25.46;54.81;101699.44;5042419;28;20064;-35
2023/08/18 11:15:24;;;;;;;11.25;6.90;;;;;;;25.51;54.59;101702.44;5044691;28;20437;-34
2023/08/18 11:17:51;;;;;;;10.40;6.88;;;;;;;25.55;54.32;101698.34;5040697;28;20727;-34
2023/08/18 11:20:18;;;;;;;11.48;7.60;;;;;;;25.60;54.29;101687.75;5043573;28;20136;-34
2023/08/18 11:22:48;;;;;;;12.38;7.00;;;;;;;25.63;54.50;101692.00;5039298;28;20053;-34
2023/08/18 11:25:16;;;;;;;11.70;5.97;;;;;;;25.68;53.98;101688.72;5040656;28;20045;-34